Enterprise Municipal Airport

About
Name: Enterprise Municipal Airport
Identifier:  ETS/KEDN
Local Time:  22. Aug 23:21 CDT
Location
Flights per Day
0 flights
Distance: 203km (126mi)
Punctuality
0% (0 flights per day delayed)
Delay Average: 31 minutes
Current Weather
 25 C (Humidity: 100%)
  0kt (0km/h / 0mph) from 0°
  16km (10 mi.)
 
 METAR KEDN 230355Z AUTO 00000KT 10SM CLR 25/25 A3004 RMK AO2 T02520250

Current Flights

Departures
Number Departure To Airline
Arrivals
Number Arrival From Airline

Current Delays

Departures
N/A
Arrivals
N/A

Destinations

Top Destinations
Airport Flights
per week
Seats
per week
  Gulf Shores (GUF) 2 - 0 0
  Pensacola (PNS) 0 - 0 0
  La Grange (LGC) 0 - 0 0
  Redstone Arsenal (HUA) 0 - 0 0
  Monroe (MLU) 0 - 0 0
  Eufaula (EUF) 0 - 0 0
  Crestview (CEW) 0 - 0 0
  Dothan (DHN) 0 - 0 0
  St. Augustine (UST) 0 - 0 0
  Jacksonville (OAJ) 0 - 0 0
  Laurel (LUL) 0 - 0 0
  Atlanta (PDK) 0 - 0 0
  Oakland County (PTK) 0 - 0 0
  Titusville (TIX) 0 - 0 0
  Norfolk (ORF) 0 - 0 0
  Fort Worth (FTW) 0 - 0 0

Airlines & Planes

Top Airlines
Airline Flights
per Day
Seats
per Day
  Flybe Nordic 0 -
  Novair 0 -
  Nolinor Aviation 0 -
Nordwind Airlines 0 -
Jet Charter Inc ( Franklin Lakes Nj ) 0 -
Delta Private Jets 0 -
  National Airlines 0 -
Top Plane Types
Model Flights Seats
Piper PA28R-201T Turbo Arrow IV 0.3/day - 0
Cirrus SR22 0.2/day - 0
Piper PA28-181 0.1/day - 0
Cessna C56X 0.1/day - 0
Diamond DA42 NG Twin Star 0.1/day - 0
Cessna C172 0.0/day - 0